sensor_id;sensor_type;location;lat;lon;timestamp;P1;durP1;ratioP1;P2;durP2;ratioP2
39956;SDS011;48483;44.640;7.494;2023-11-18T00:00:08;3.55;;;2.22;;
39956;SDS011;48483;44.640;7.494;2023-11-18T00:02:40;3.67;;;2.15;;
39956;SDS011;48483;44.640;7.494;2023-11-18T00:05:08;3.38;;;2.25;;
39956;SDS011;48483;44.640;7.494;2023-11-18T00:07:35;4.03;;;2.42;;
39956;SDS011;48483;44.640;7.494;2023-11-18T00:10:04;6.07;;;2.42;;
39956;SDS011;48483;44.640;7.494;2023-11-18T00:12:32;4.03;;;2.20;;
39956;SDS011;48483;44.640;7.494;2023-11-18T00:15:00;4.53;;;1.98;;
39956;SDS011;48483;44.640;7.494;2023-11-18T00:17:29;6.28;;;2.35;;
39956;SDS011;48483;44.640;7.494;2023-11-18T00:19:56;4.72;;;2.53;;
39956;SDS011;48483;44.640;7.494;2023-11-18T00:22:23;3.70;;;2.13;;
39956;SDS011;48483;44.640;7.494;2023-11-18T00:24:50;2.72;;;1.73;;
39956;SDS011;48483;44.640;7.494;2023-11-18T00:27:19;3.88;;;2.25;;
39956;SDS011;48483;44.640;7.494;2023-11-18T00:29:49;3.53;;;2.20;;
39956;SDS011;48483;44.640;7.494;2023-11-18T00:32:15;4.32;;;2.20;;
39956;SDS011;48483;44.640;7.494;2023-11-18T00:34:42;4.47;;;1.88;;
39956;SDS011;48483;44.640;7.494;2023-11-18T00:37:10;5.35;;;2.30;;
39956;SDS011;48483;44.640;7.494;2023-11-18T00:39:37;4.18;;;1.90;;
39956;SDS011;48483;44.640;7.494;2023-11-18T00:42:04;3.53;;;2.13;;
39956;SDS011;48483;44.640;7.494;2023-11-18T00:44:33;3.78;;;2.13;;
39956;SDS011;48483;44.640;7.494;2023-11-18T00:47:00;5.03;;;2.22;;
39956;SDS011;48483;44.640;7.494;2023-11-18T00:49:28;4.05;;;2.20;;
39956;SDS011;48483;44.640;7.494;2023-11-18T00:51:56;4.65;;;1.95;;
39956;SDS011;48483;44.640;7.494;2023-11-18T00:54:22;2.00;;;1.63;;
39956;SDS011;48483;44.640;7.494;2023-11-18T00:56:50;4.15;;;2.30;;
39956;SDS011;48483;44.640;7.494;2023-11-18T00:59:17;3.20;;;2.00;;
39956;SDS011;48483;44.640;7.494;2023-11-18T01:01:45;3.38;;;1.83;;
39956;SDS011;48483;44.640;7.494;2023-11-18T01:04:12;3.95;;;1.40;;
39956;SDS011;48483;44.640;7.494;2023-11-18T01:06:39;2.80;;;1.67;;
39956;SDS011;48483;44.640;7.494;2023-11-18T01:09:06;3.17;;;1.77;;
39956;SDS011;48483;44.640;7.494;2023-11-18T01:11:35;3.30;;;2.08;;
39956;SDS011;48483;44.640;7.494;2023-11-18T01:14:02;4.78;;;2.17;;
39956;SDS011;48483;44.640;7.494;2023-11-18T01:16:28;5.00;;;1.73;;
39956;SDS011;48483;44.640;7.494;2023-11-18T01:18:58;4.93;;;1.88;;
39956;SDS011;48483;44.640;7.494;2023-11-18T01:21:25;3.35;;;1.92;;
39956;SDS011;48483;44.640;7.494;2023-11-18T01:23:54;3.10;;;1.92;;
39956;SDS011;48483;44.640;7.494;2023-11-18T01:26:21;3.28;;;1.65;;
39956;SDS011;48483;44.640;7.494;2023-11-18T01:28:49;3.58;;;1.38;;
39956;SDS011;48483;44.640;7.494;2023-11-18T01:31:15;4.03;;;1.80;;
39956;SDS011;48483;44.640;7.494;2023-11-18T01:33:43;3.60;;;1.80;;
39956;SDS011;48483;44.640;7.494;2023-11-18T01:36:12;2.35;;;1.45;;
39956;SDS011;48483;44.640;7.494;2023-11-18T01:38:39;3.35;;;1.65;;
39956;SDS011;48483;44.640;7.494;2023-11-18T01:41:06;3.67;;;1.67;;
39956;SDS011;48483;44.640;7.494;2023-11-18T01:43:33;2.20;;;1.40;;
39956;SDS011;48483;44.640;7.494;2023-11-18T01:46:00;1.95;;;1.38;;
39956;SDS011;48483;44.640;7.494;2023-11-18T01:48:30;2.43;;;1.30;;
39956;SDS011;48483;44.640;7.494;2023-11-18T01:50:59;3.20;;;1.52;;
39956;SDS011;48483;44.640;7.494;2023-11-18T01:55:59;2.97;;;1.38;;
39956;SDS011;48483;44.640;7.494;2023-11-18T01:58:26;3.22;;;1.27;;
39956;SDS011;48483;44.640;7.494;2023-11-18T02:00:53;2.70;;;1.60;;
39956;SDS011;48483;44.640;7.494;2023-11-18T02:03:21;3.80;;;1.35;;
39956;SDS011;48483;44.640;7.494;2023-11-18T02:05:47;2.15;;;1.27;;
39956;SDS011;48483;44.640;7.494;2023-11-18T02:08:14;2.65;;;1.30;;
39956;SDS011;48483;44.640;7.494;2023-11-18T02:10:45;2.40;;;1.20;;
39956;SDS011;48483;44.640;7.494;2023-11-18T02:13:18;3.00;;;1.42;;
39956;SDS011;48483;44.640;7.494;2023-11-18T02:15:52;2.53;;;1.40;;
39956;SDS011;48483;44.640;7.494;2023-11-18T02:18:20;3.75;;;1.63;;
39956;SDS011;48483;44.640;7.494;2023-11-18T02:20:49;2.97;;;1.40;;
39956;SDS011;48483;44.640;7.494;2023-11-18T02:23:18;3.53;;;1.08;;
39956;SDS011;48483;44.640;7.494;2023-11-18T02:25:49;2.42;;;1.10;;
39956;SDS011;48483;44.640;7.494;2023-11-18T02:28:16;1.77;;;0.90;;
39956;SDS011;48483;44.640;7.494;2023-11-18T02:30:44;2.03;;;1.10;;
39956;SDS011;48483;44.640;7.494;2023-11-18T02:33:14;1.98;;;1.00;;
39956;SDS011;48483;44.640;7.494;2023-11-18T02:35:46;1.92;;;1.00;;
39956;SDS011;48483;44.640;7.494;2023-11-18T02:38:19;1.40;;;0.93;;
39956;SDS011;48483;44.640;7.494;2023-11-18T02:40:50;1.73;;;0.85;;
39956;SDS011;48483;44.640;7.494;2023-11-18T02:43:19;2.10;;;0.95;;
39956;SDS011;48483;44.640;7.494;2023-11-18T02:45:46;2.00;;;0.90;;
39956;SDS011;48483;44.640;7.494;2023-11-18T02:48:14;3.47;;;0.90;;
39956;SDS011;48483;44.640;7.494;2023-11-18T02:50:41;1.25;;;0.80;;
39956;SDS011;48483;44.640;7.494;2023-11-18T02:53:08;2.05;;;1.10;;
39956;SDS011;48483;44.640;7.494;2023-11-18T02:55:35;2.03;;;1.02;;
39956;SDS011;48483;44.640;7.494;2023-11-18T02:58:03;1.20;;;0.93;;
39956;SDS011;48483;44.640;7.494;2023-11-18T03:00:30;2.10;;;1.13;;
39956;SDS011;48483;44.640;7.494;2023-11-18T03:02:57;5.32;;;1.40;;
39956;SDS011;48483;44.640;7.494;2023-11-18T03:05:23;2.10;;;1.20;;
39956;SDS011;48483;44.640;7.494;2023-11-18T03:07:52;2.38;;;0.98;;
39956;SDS011;48483;44.640;7.494;2023-11-18T03:10:21;1.58;;;1.05;;
39956;SDS011;48483;44.640;7.494;2023-11-18T03:12:48;3.15;;;0.98;;
39956;SDS011;48483;44.640;7.494;2023-11-18T03:15:16;2.78;;;1.40;;
39956;SDS011;48483;44.640;7.494;2023-11-18T03:17:43;1.95;;;1.08;;
39956;SDS011;48483;44.640;7.494;2023-11-18T03:20:11;2.92;;;2.17;;
39956;SDS011;48483;44.640;7.494;2023-11-18T03:22:40;1.77;;;1.03;;
39956;SDS011;48483;44.640;7.494;2023-11-18T03:25:07;2.17;;;1.13;;
39956;SDS011;48483;44.640;7.494;2023-11-18T03:27:34;3.15;;;1.00;;
39956;SDS011;48483;44.640;7.494;2023-11-18T03:30:01;1.73;;;0.70;;
39956;SDS011;48483;44.640;7.494;2023-11-18T03:32:30;1.95;;;0.75;;
39956;SDS011;48483;44.640;7.494;2023-11-18T03:34:57;2.10;;;1.05;;
39956;SDS011;48483;44.640;7.494;2023-11-18T03:37:25;2.65;;;1.15;;
39956;SDS011;48483;44.640;7.494;2023-11-18T03:39:52;2.78;;;1.30;;
39956;SDS011;48483;44.640;7.494;2023-11-18T03:42:19;4.35;;;1.20;;
39956;SDS011;48483;44.640;7.494;2023-11-18T03:44:45;2.47;;;1.10;;
39956;SDS011;48483;44.640;7.494;2023-11-18T03:47:13;1.70;;;1.23;;
39956;SDS011;48483;44.640;7.494;2023-11-18T03:49:42;2.05;;;1.00;;
39956;SDS011;48483;44.640;7.494;2023-11-18T03:52:08;2.30;;;0.80;;
39956;SDS011;48483;44.640;7.494;2023-11-18T03:54:35;1.88;;;1.13;;
39956;SDS011;48483;44.640;7.494;2023-11-18T03:57:02;1.45;;;0.88;;
39956;SDS011;48483;44.640;7.494;2023-11-18T03:59:29;2.90;;;1.05;;
39956;SDS011;48483;44.640;7.494;2023-11-18T04:01:55;1.38;;;0.80;;
39956;SDS011;48483;44.640;7.494;2023-11-18T04:04:22;1.95;;;0.88;;
39956;SDS011;48483;44.640;7.494;2023-11-18T04:06:50;1.25;;;0.65;;
39956;SDS011;48483;44.640;7.494;2023-11-18T04:09:17;1.67;;;0.85;;
39956;SDS011;48483;44.640;7.494;2023-11-18T04:11:43;1.60;;;0.80;;
39956;SDS011;48483;44.640;7.494;2023-11-18T04:14:12;1.27;;;0.70;;
39956;SDS011;48483;44.640;7.494;2023-11-18T04:16:38;1.02;;;0.65;;
39956;SDS011;48483;44.640;7.494;2023-11-18T04:19:05;1.17;;;0.70;;
39956;SDS011;48483;44.640;7.494;2023-11-18T04:21:32;1.38;;;0.77;;
39956;SDS011;48483;44.640;7.494;2023-11-18T04:24:00;2.38;;;1.13;;
39956;SDS011;48483;44.640;7.494;2023-11-18T04:26:28;1.98;;;0.80;;
39956;SDS011;48483;44.640;7.494;2023-11-18T04:28:54;1.20;;;0.80;;
39956;SDS011;48483;44.640;7.494;2023-11-18T04:31:21;2.83;;;1.20;;
39956;SDS011;48483;44.640;7.494;2023-11-18T04:33:47;1.10;;;0.70;;
39956;SDS011;48483;44.640;7.494;2023-11-18T04:36:14;2.58;;;1.02;;
39956;SDS011;48483;44.640;7.494;2023-11-18T04:38:42;1.60;;;0.73;;
39956;SDS011;48483;44.640;7.494;2023-11-18T04:41:10;2.08;;;1.25;;
39956;SDS011;48483;44.640;7.494;2023-11-18T04:43:37;2.00;;;0.82;;
39956;SDS011;48483;44.640;7.494;2023-11-18T04:46:07;1.17;;;0.80;;
39956;SDS011;48483;44.640;7.494;2023-11-18T04:48:34;1.92;;;1.10;;
39956;SDS011;48483;44.640;7.494;2023-11-18T04:51:01;1.98;;;0.93;;
39956;SDS011;48483;44.640;7.494;2023-11-18T04:53:27;2.35;;;1.25;;
39956;SDS011;48483;44.640;7.494;2023-11-18T04:55:54;1.42;;;0.77;;
39956;SDS011;48483;44.640;7.494;2023-11-18T04:58:22;2.05;;;0.80;;
39956;SDS011;48483;44.640;7.494;2023-11-18T05:00:49;1.45;;;0.80;;
39956;SDS011;48483;44.640;7.494;2023-11-18T05:03:16;1.38;;;1.00;;
39956;SDS011;48483;44.640;7.494;2023-11-18T05:05:43;2.53;;;0.90;;
39956;SDS011;48483;44.640;7.494;2023-11-18T05:08:17;2.45;;;1.02;;
39956;SDS011;48483;44.640;7.494;2023-11-18T05:10:46;1.88;;;1.02;;
39956;SDS011;48483;44.640;7.494;2023-11-18T05:13:13;1.27;;;0.68;;
39956;SDS011;48483;44.640;7.494;2023-11-18T05:15:44;2.63;;;1.05;;
39956;SDS011;48483;44.640;7.494;2023-11-18T05:18:11;3.08;;;1.10;;
39956;SDS011;48483;44.640;7.494;2023-11-18T05:20:40;4.32;;;0.90;;
39956;SDS011;48483;44.640;7.494;2023-11-18T05:23:06;2.17;;;1.13;;
39956;SDS011;48483;44.640;7.494;2023-11-18T05:25:35;1.60;;;0.90;;
39956;SDS011;48483;44.640;7.494;2023-11-18T05:28:02;2.28;;;1.25;;
39956;SDS011;48483;44.640;7.494;2023-11-18T05:30:30;3.80;;;1.20;;
39956;SDS011;48483;44.640;7.494;2023-11-18T05:32:59;2.50;;;1.17;;
39956;SDS011;48483;44.640;7.494;2023-11-18T05:35:29;2.42;;;1.10;;
39956;SDS011;48483;44.640;7.494;2023-11-18T05:37:57;2.05;;;0.93;;
39956;SDS011;48483;44.640;7.494;2023-11-18T05:40:24;2.85;;;1.05;;
39956;SDS011;48483;44.640;7.494;2023-11-18T05:42:51;2.15;;;1.10;;
39956;SDS011;48483;44.640;7.494;2023-11-18T05:45:19;1.52;;;0.90;;
39956;SDS011;48483;44.640;7.494;2023-11-18T05:47:59;4.50;;;1.55;;
39956;SDS011;48483;44.640;7.494;2023-11-18T05:50:25;2.45;;;1.58;;
39956;SDS011;48483;44.640;7.494;2023-11-18T05:52:52;3.55;;;1.60;;
39956;SDS011;48483;44.640;7.494;2023-11-18T05:55:20;3.92;;;1.77;;
39956;SDS011;48483;44.640;7.494;2023-11-18T05:57:47;2.75;;;1.67;;
39956;SDS011;48483;44.640;7.494;2023-11-18T06:00:14;2.35;;;1.42;;
39956;SDS011;48483;44.640;7.494;2023-11-18T06:02:43;3.08;;;1.95;;
39956;SDS011;48483;44.640;7.494;2023-11-18T06:05:30;4.00;;;1.98;;
39956;SDS011;48483;44.640;7.494;2023-11-18T06:07:57;3.65;;;1.45;;
39956;SDS011;48483;44.640;7.494;2023-11-18T06:10:25;5.13;;;1.52;;
39956;SDS011;48483;44.640;7.494;2023-11-18T06:12:51;2.97;;;1.52;;
39956;SDS011;48483;44.640;7.494;2023-11-18T06:15:19;4.13;;;1.63;;
39956;SDS011;48483;44.640;7.494;2023-11-18T06:17:48;3.83;;;1.33;;
39956;SDS011;48483;44.640;7.494;2023-11-18T06:20:15;3.00;;;1.67;;
39956;SDS011;48483;44.640;7.494;2023-11-18T06:22:44;2.33;;;1.05;;
39956;SDS011;48483;44.640;7.494;2023-11-18T06:25:11;3.90;;;1.20;;
39956;SDS011;48483;44.640;7.494;2023-11-18T06:27:38;3.53;;;1.40;;
39956;SDS011;48483;44.640;7.494;2023-11-18T06:30:05;2.47;;;1.23;;
39956;SDS011;48483;44.640;7.494;2023-11-18T06:32:33;2.72;;;1.15;;
39956;SDS011;48483;44.640;7.494;2023-11-18T06:34:59;2.78;;;1.10;;
39956;SDS011;48483;44.640;7.494;2023-11-18T06:37:31;2.88;;;1.35;;
39956;SDS011;48483;44.640;7.494;2023-11-18T06:40:00;2.45;;;1.17;;
39956;SDS011;48483;44.640;7.494;2023-11-18T06:42:27;1.95;;;1.10;;
39956;SDS011;48483;44.640;7.494;2023-11-18T06:44:53;3.78;;;1.27;;
39956;SDS011;48483;44.640;7.494;2023-11-18T06:47:20;3.08;;;0.95;;
39956;SDS011;48483;44.640;7.494;2023-11-18T06:49:47;2.95;;;1.17;;
39956;SDS011;48483;44.640;7.494;2023-11-18T06:52:14;7.95;;;1.20;;
39956;SDS011;48483;44.640;7.494;2023-11-18T06:54:40;1.67;;;1.30;;
39956;SDS011;48483;44.640;7.494;2023-11-18T06:57:09;4.47;;;1.15;;
39956;SDS011;48483;44.640;7.494;2023-11-18T06:59:35;2.17;;;1.35;;
39956;SDS011;48483;44.640;7.494;2023-11-18T07:02:02;6.03;;;1.45;;
39956;SDS011;48483;44.640;7.494;2023-11-18T07:04:31;3.10;;;1.40;;
39956;SDS011;48483;44.640;7.494;2023-11-18T07:06:58;7.45;;;1.42;;
39956;SDS011;48483;44.640;7.494;2023-11-18T07:09:25;2.70;;;1.10;;
39956;SDS011;48483;44.640;7.494;2023-11-18T07:11:51;3.92;;;1.60;;
39956;SDS011;48483;44.640;7.494;2023-11-18T07:14:20;1.63;;;1.20;;
39956;SDS011;48483;44.640;7.494;2023-11-18T07:16:47;2.42;;;1.20;;
39956;SDS011;48483;44.640;7.494;2023-11-18T07:19:13;4.35;;;2.15;;
39956;SDS011;48483;44.640;7.494;2023-11-18T07:21:46;4.28;;;1.98;;
39956;SDS011;48483;44.640;7.494;2023-11-18T07:24:13;2.30;;;1.35;;
39956;SDS011;48483;44.640;7.494;2023-11-18T07:26:40;4.03;;;2.63;;
39956;SDS011;48483;44.640;7.494;2023-11-18T07:29:06;5.07;;;2.17;;
39956;SDS011;48483;44.640;7.494;2023-11-18T07:31:35;5.90;;;2.13;;
39956;SDS011;48483;44.640;7.494;2023-11-18T07:34:04;3.70;;;2.13;;
39956;SDS011;48483;44.640;7.494;2023-11-18T07:36:33;5.50;;;2.38;;
39956;SDS011;48483;44.640;7.494;2023-11-18T07:39:00;5.50;;;2.25;;
39956;SDS011;48483;44.640;7.494;2023-11-18T07:41:30;3.97;;;2.10;;
39956;SDS011;48483;44.640;7.494;2023-11-18T07:43:57;8.52;;;2.72;;
39956;SDS011;48483;44.640;7.494;2023-11-18T07:46:23;4.53;;;2.40;;
39956;SDS011;48483;44.640;7.494;2023-11-18T07:48:52;6.53;;;2.40;;
39956;SDS011;48483;44.640;7.494;2023-11-18T07:51:19;6.80;;;3.03;;
39956;SDS011;48483;44.640;7.494;2023-11-18T07:53:49;8.40;;;4.40;;
39956;SDS011;48483;44.640;7.494;2023-11-18T07:56:16;5.97;;;3.25;;
39956;SDS011;48483;44.640;7.494;2023-11-18T07:58:43;5.43;;;2.92;;
39956;SDS011;48483;44.640;7.494;2023-11-18T08:01:12;6.00;;;3.37;;
39956;SDS011;48483;44.640;7.494;2023-11-18T08:03:41;5.40;;;3.08;;
39956;SDS011;48483;44.640;7.494;2023-11-18T08:06:10;7.75;;;3.35;;
39956;SDS011;48483;44.640;7.494;2023-11-18T08:08:37;6.10;;;3.53;;
39956;SDS011;48483;44.640;7.494;2023-11-18T08:11:05;4.65;;;2.95;;
39956;SDS011;48483;44.640;7.494;2023-11-18T08:13:32;6.97;;;3.47;;
39956;SDS011;48483;44.640;7.494;2023-11-18T08:15:59;4.25;;;2.40;;
39956;SDS011;48483;44.640;7.494;2023-11-18T08:18:25;6.25;;;3.92;;
39956;SDS011;48483;44.640;7.494;2023-11-18T08:20:53;6.57;;;4.13;;
39956;SDS011;48483;44.640;7.494;2023-11-18T08:23:22;8.32;;;4.00;;
39956;SDS011;48483;44.640;7.494;2023-11-18T08:25:48;10.18;;;4.38;;
39956;SDS011;48483;44.640;7.494;2023-11-18T08:28:16;6.65;;;3.92;;
39956;SDS011;48483;44.640;7.494;2023-11-18T08:30:43;6.78;;;4.05;;
39956;SDS011;48483;44.640;7.494;2023-11-18T08:33:10;5.95;;;4.00;;
39956;SDS011;48483;44.640;7.494;2023-11-18T08:35:37;6.65;;;4.25;;
39956;SDS011;48483;44.640;7.494;2023-11-18T08:38:04;7.00;;;4.30;;
39956;SDS011;48483;44.640;7.494;2023-11-18T08:40:34;6.25;;;3.85;;
39956;SDS011;48483;44.640;7.494;2023-11-18T08:43:01;9.10;;;4.03;;
39956;SDS011;48483;44.640;7.494;2023-11-18T08:45:30;8.20;;;4.18;;
39956;SDS011;48483;44.640;7.494;2023-11-18T08:47:59;12.45;;;4.82;;
39956;SDS011;48483;44.640;7.494;2023-11-18T08:50:27;5.82;;;3.58;;
39956;SDS011;48483;44.640;7.494;2023-11-18T08:52:55;6.18;;;3.65;;
39956;SDS011;48483;44.640;7.494;2023-11-18T08:55:25;7.77;;;4.17;;
39956;SDS011;48483;44.640;7.494;2023-11-18T08:58:08;7.57;;;3.85;;
39956;SDS011;48483;44.640;7.494;2023-11-18T09:00:44;7.50;;;3.53;;
39956;SDS011;48483;44.640;7.494;2023-11-18T09:03:12;9.45;;;4.03;;
39956;SDS011;48483;44.640;7.494;2023-11-18T09:05:52;8.63;;;3.30;;
39956;SDS011;48483;44.640;7.494;2023-11-18T09:08:29;6.13;;;3.47;;
39956;SDS011;48483;44.640;7.494;2023-11-18T09:11:08;7.68;;;4.40;;
39956;SDS011;48483;44.640;7.494;2023-11-18T09:13:44;6.55;;;4.07;;
39956;SDS011;48483;44.640;7.494;2023-11-18T09:16:17;8.57;;;5.20;;
39956;SDS011;48483;44.640;7.494;2023-11-18T09:18:46;8.32;;;4.88;;
39956;SDS011;48483;44.640;7.494;2023-11-18T09:21:14;12.30;;;5.03;;
39956;SDS011;48483;44.640;7.494;2023-11-18T09:23:41;9.13;;;5.18;;
39956;SDS011;48483;44.640;7.494;2023-11-18T09:26:08;9.02;;;5.22;;
39956;SDS011;48483;44.640;7.494;2023-11-18T09:28:36;7.47;;;4.57;;
39956;SDS011;48483;44.640;7.494;2023-11-18T09:31:05;6.88;;;4.65;;
39956;SDS011;48483;44.640;7.494;2023-11-18T09:33:37;11.68;;;5.63;;
39956;SDS011;48483;44.640;7.494;2023-11-18T09:36:06;9.55;;;4.80;;
39956;SDS011;48483;44.640;7.494;2023-11-18T09:38:35;8.75;;;4.20;;
39956;SDS011;48483;44.640;7.494;2023-11-18T09:41:03;8.15;;;3.90;;
39956;SDS011;48483;44.640;7.494;2023-11-18T09:43:36;6.00;;;4.00;;
39956;SDS011;48483;44.640;7.494;2023-11-18T09:46:15;6.68;;;3.20;;
39956;SDS011;48483;44.640;7.494;2023-11-18T09:48:43;5.35;;;3.03;;
39956;SDS011;48483;44.640;7.494;2023-11-18T09:51:17;4.57;;;2.70;;
39956;SDS011;48483;44.640;7.494;2023-11-18T09:53:49;5.05;;;3.25;;
39956;SDS011;48483;44.640;7.494;2023-11-18T09:56:19;6.95;;;3.55;;
39956;SDS011;48483;44.640;7.494;2023-11-18T09:58:57;4.50;;;2.90;;
39956;SDS011;48483;44.640;7.494;2023-11-18T10:01:34;5.35;;;2.88;;
39956;SDS011;48483;44.640;7.494;2023-11-18T10:04:06;4.43;;;2.83;;
39956;SDS011;48483;44.640;7.494;2023-11-18T10:06:34;5.72;;;3.67;;
39956;SDS011;48483;44.640;7.494;2023-11-18T10:09:02;8.85;;;4.30;;
39956;SDS011;48483;44.640;7.494;2023-11-18T10:11:41;9.07;;;4.22;;
39956;SDS011;48483;44.640;7.494;2023-11-18T10:14:08;7.22;;;3.83;;
39956;SDS011;48483;44.640;7.494;2023-11-18T10:16:38;7.03;;;3.90;;
39956;SDS011;48483;44.640;7.494;2023-11-18T10:19:04;8.93;;;4.68;;
39956;SDS011;48483;44.640;7.494;2023-11-18T10:21:34;11.80;;;6.03;;
39956;SDS011;48483;44.640;7.494;2023-11-18T10:24:07;11.60;;;4.72;;
39956;SDS011;48483;44.640;7.494;2023-11-18T10:26:41;7.15;;;3.80;;
39956;SDS011;48483;44.640;7.494;2023-11-18T10:29:11;9.02;;;4.35;;
39956;SDS011;48483;44.640;7.494;2023-11-18T10:31:40;7.07;;;3.95;;
39956;SDS011;48483;44.640;7.494;2023-11-18T10:34:11;7.95;;;4.40;;
39956;SDS011;48483;44.640;7.494;2023-11-18T10:36:41;7.57;;;3.90;;
39956;SDS011;48483;44.640;7.494;2023-11-18T10:39:25;8.93;;;3.85;;
39956;SDS011;48483;44.640;7.494;2023-11-18T10:41:58;6.18;;;3.50;;
39956;SDS011;48483;44.640;7.494;2023-11-18T10:44:26;8.52;;;4.90;;
39956;SDS011;48483;44.640;7.494;2023-11-18T10:46:56;5.63;;;3.15;;
39956;SDS011;48483;44.640;7.494;2023-11-18T10:49:27;6.32;;;2.33;;
39956;SDS011;48483;44.640;7.494;2023-11-18T10:51:55;4.78;;;2.35;;
39956;SDS011;48483;44.640;7.494;2023-11-18T10:54:22;5.05;;;2.83;;
39956;SDS011;48483;44.640;7.494;2023-11-18T10:56:52;4.47;;;2.45;;
39956;SDS011;48483;44.640;7.494;2023-11-18T10:59:22;4.35;;;2.58;;
39956;SDS011;48483;44.640;7.494;2023-11-18T11:01:49;5.00;;;2.53;;
39956;SDS011;48483;44.640;7.494;2023-11-18T11:04:17;4.57;;;2.75;;
39956;SDS011;48483;44.640;7.494;2023-11-18T11:06:47;4.20;;;2.65;;
39956;SDS011;48483;44.640;7.494;2023-11-18T11:09:22;4.85;;;2.40;;
39956;SDS011;48483;44.640;7.494;2023-11-18T11:12:04;6.90;;;2.55;;
39956;SDS011;48483;44.640;7.494;2023-11-18T11:14:42;5.03;;;1.77;;
39956;SDS011;48483;44.640;7.494;2023-11-18T11:17:16;4.57;;;2.13;;
39956;SDS011;48483;44.640;7.494;2023-11-18T11:19:55;3.22;;;1.73;;
39956;SDS011;48483;44.640;7.494;2023-11-18T11:22:45;2.80;;;1.80;;
39956;SDS011;48483;44.640;7.494;2023-11-18T11:25:23;2.87;;;1.83;;
39956;SDS011;48483;44.640;7.494;2023-11-18T11:27:59;2.92;;;1.58;;
39956;SDS011;48483;44.640;7.494;2023-11-18T11:30:38;1.80;;;1.10;;
39956;SDS011;48483;44.640;7.494;2023-11-18T11:33:13;2.00;;;1.17;;
39956;SDS011;48483;44.640;7.494;2023-11-18T11:35:52;1.73;;;1.10;;
39956;SDS011;48483;44.640;7.494;2023-11-18T11:38:23;4.65;;;1.10;;
39956;SDS011;48483;44.640;7.494;2023-11-18T11:40:51;2.85;;;1.00;;
39956;SDS011;48483;44.640;7.494;2023-11-18T11:43:20;1.52;;;0.70;;
39956;SDS011;48483;44.640;7.494;2023-11-18T11:45:48;1.83;;;0.93;;
39956;SDS011;48483;44.640;7.494;2023-11-18T11:48:17;5.80;;;1.05;;
39956;SDS011;48483;44.640;7.494;2023-11-18T11:51:05;1.75;;;0.90;;
39956;SDS011;48483;44.640;7.494;2023-11-18T11:53:42;1.98;;;1.08;;
39956;SDS011;48483;44.640;7.494;2023-11-18T11:56:13;1.52;;;0.90;;
39956;SDS011;48483;44.640;7.494;2023-11-18T11:58:46;2.13;;;1.10;;
39956;SDS011;48483;44.640;7.494;2023-11-18T12:01:23;2.25;;;1.33;;
39956;SDS011;48483;44.640;7.494;2023-11-18T12:03:56;1.95;;;1.15;;
39956;SDS011;48483;44.640;7.494;2023-11-18T12:06:24;2.53;;;1.25;;
39956;SDS011;48483;44.640;7.494;2023-11-18T12:08:53;1.10;;;0.73;;
39956;SDS011;48483;44.640;7.494;2023-11-18T12:11:21;1.38;;;1.05;;
39956;SDS011;48483;44.640;7.494;2023-11-18T12:14:00;1.52;;;1.00;;
39956;SDS011;48483;44.640;7.494;2023-11-18T12:19:30;2.08;;;0.80;;
39956;SDS011;48483;44.640;7.494;2023-11-18T12:22:15;1.88;;;1.50;;
39956;SDS011;48483;44.640;7.494;2023-11-18T12:24:45;1.92;;;0.95;;
39956;SDS011;48483;44.640;7.494;2023-11-18T12:27:42;0.85;;;0.80;;
39956;SDS011;48483;44.640;7.494;2023-11-18T12:33:18;1.00;;;0.82;;
39956;SDS011;48483;44.640;7.494;2023-11-18T12:39:19;2.22;;;0.90;;
39956;SDS011;48483;44.640;7.494;2023-11-18T12:42:20;1.23;;;0.70;;
39956;SDS011;48483;44.640;7.494;2023-11-18T12:45:20;1.23;;;0.88;;
39956;SDS011;48483;44.640;7.494;2023-11-18T12:48:09;1.90;;;0.82;;
39956;SDS011;48483;44.640;7.494;2023-11-18T12:50:40;1.00;;;0.85;;
39956;SDS011;48483;44.640;7.494;2023-11-18T12:53:10;1.40;;;0.80;;
39956;SDS011;48483;44.640;7.494;2023-11-18T12:55:38;1.30;;;1.00;;
39956;SDS011;48483;44.640;7.494;2023-11-18T12:58:06;1.85;;;1.00;;
39956;SDS011;48483;44.640;7.494;2023-11-18T13:00:33;1.42;;;0.70;;
39956;SDS011;48483;44.640;7.494;2023-11-18T13:03:01;2.50;;;1.00;;
39956;SDS011;48483;44.640;7.494;2023-11-18T13:05:28;2.05;;;1.38;;
39956;SDS011;48483;44.640;7.494;2023-11-18T13:07:56;2.00;;;1.20;;
39956;SDS011;48483;44.640;7.494;2023-11-18T13:10:27;2.08;;;1.02;;
39956;SDS011;48483;44.640;7.494;2023-11-18T13:12:55;1.77;;;1.00;;
39956;SDS011;48483;44.640;7.494;2023-11-18T13:15:24;1.85;;;1.08;;
39956;SDS011;48483;44.640;7.494;2023-11-18T13:18:00;2.47;;;1.63;;
39956;SDS011;48483;44.640;7.494;2023-11-18T13:20:28;1.65;;;1.55;;
39956;SDS011;48483;44.640;7.494;2023-11-18T13:22:57;2.15;;;1.38;;
39956;SDS011;48483;44.640;7.494;2023-11-18T13:25:24;1.88;;;1.30;;
39956;SDS011;48483;44.640;7.494;2023-11-18T13:27:51;2.10;;;1.33;;
39956;SDS011;48483;44.640;7.494;2023-11-18T13:30:19;1.90;;;1.02;;
39956;SDS011;48483;44.640;7.494;2023-11-18T13:32:46;2.15;;;1.15;;
39956;SDS011;48483;44.640;7.494;2023-11-18T13:35:16;1.33;;;1.02;;
39956;SDS011;48483;44.640;7.494;2023-11-18T13:37:46;1.83;;;1.30;;
39956;SDS011;48483;44.640;7.494;2023-11-18T13:40:14;3.65;;;1.42;;
39956;SDS011;48483;44.640;7.494;2023-11-18T13:42:44;2.85;;;1.77;;
39956;SDS011;48483;44.640;7.494;2023-11-18T13:45:14;2.92;;;1.23;;
39956;SDS011;48483;44.640;7.494;2023-11-18T13:47:51;3.22;;;1.10;;
39956;SDS011;48483;44.640;7.494;2023-11-18T13:50:21;4.35;;;1.65;;
39956;SDS011;48483;44.640;7.494;2023-11-18T13:52:47;1.63;;;1.13;;
39956;SDS011;48483;44.640;7.494;2023-11-18T13:55:15;2.25;;;1.77;;
39956;SDS011;48483;44.640;7.494;2023-11-18T13:57:57;2.53;;;1.52;;
39956;SDS011;48483;44.640;7.494;2023-11-18T14:00:25;2.50;;;1.70;;
39956;SDS011;48483;44.640;7.494;2023-11-18T14:02:55;2.33;;;1.30;;
39956;SDS011;48483;44.640;7.494;2023-11-18T14:05:22;2.35;;;1.73;;
39956;SDS011;48483;44.640;7.494;2023-11-18T14:07:51;4.57;;;2.15;;
39956;SDS011;48483;44.640;7.494;2023-11-18T14:10:21;5.15;;;2.35;;
39956;SDS011;48483;44.640;7.494;2023-11-18T14:13:00;8.25;;;3.30;;
39956;SDS011;48483;44.640;7.494;2023-11-18T14:15:28;2.35;;;1.63;;
39956;SDS011;48483;44.640;7.494;2023-11-18T14:17:57;3.05;;;1.73;;
39956;SDS011;48483;44.640;7.494;2023-11-18T14:20:24;2.88;;;1.55;;
39956;SDS011;48483;44.640;7.494;2023-11-18T14:22:50;2.83;;;1.63;;
39956;SDS011;48483;44.640;7.494;2023-11-18T14:25:18;3.08;;;2.00;;
39956;SDS011;48483;44.640;7.494;2023-11-18T14:27:44;3.85;;;2.45;;
39956;SDS011;48483;44.640;7.494;2023-11-18T14:30:13;3.17;;;1.58;;
39956;SDS011;48483;44.640;7.494;2023-11-18T14:32:39;2.53;;;1.67;;
39956;SDS011;48483;44.640;7.494;2023-11-18T14:35:07;1.50;;;1.30;;
39956;SDS011;48483;44.640;7.494;2023-11-18T14:37:37;3.63;;;1.63;;
39956;SDS011;48483;44.640;7.494;2023-11-18T14:40:08;2.35;;;1.58;;
39956;SDS011;48483;44.640;7.494;2023-11-18T14:42:40;3.60;;;2.13;;
39956;SDS011;48483;44.640;7.494;2023-11-18T14:45:08;4.25;;;1.95;;
39956;SDS011;48483;44.640;7.494;2023-11-18T14:47:35;3.28;;;1.90;;
39956;SDS011;48483;44.640;7.494;2023-11-18T14:50:02;3.38;;;2.03;;
39956;SDS011;48483;44.640;7.494;2023-11-18T14:52:32;3.13;;;2.20;;
39956;SDS011;48483;44.640;7.494;2023-11-18T14:54:59;2.75;;;1.90;;
39956;SDS011;48483;44.640;7.494;2023-11-18T14:57:26;4.85;;;2.30;;
39956;SDS011;48483;44.640;7.494;2023-11-18T14:59:54;2.83;;;1.90;;
39956;SDS011;48483;44.640;7.494;2023-11-18T15:02:21;3.35;;;1.88;;
39956;SDS011;48483;44.640;7.494;2023-11-18T15:04:48;2.33;;;1.73;;
39956;SDS011;48483;44.640;7.494;2023-11-18T15:07:15;4.70;;;2.08;;
39956;SDS011;48483;44.640;7.494;2023-11-18T15:09:43;3.95;;;2.38;;
39956;SDS011;48483;44.640;7.494;2023-11-18T15:12:09;6.40;;;2.65;;